Portada
METAR-TAF:

METAR-TAF

Aeropuertos :

Leuchars, Escocia

latitud: 56-23N, longitud: 002-52W, altitud: 12 m

Observación

El informe se hizo hace 44 minutos, a las 13:20 UTC
Viento 6 kt del suroeste
Temperatura 16°C
Humedad 77%
Presión 1010 hPa
Visibilidad 10 km o más
lluvia ligera,

METAR: EGQL 141320Z AUTO 23006KT 9999 -RA OVC073/// 16/12 Q1010

Hora: 15:04 (14:04 UTC)

Pronóstico

El informe se hizo hace 1 hora y 7 minutos, a las 12:57 UTC
Pronóstico válido del 14 a las 12 UTC al 14 a las 21 UTC
Viento 6 kt del suroeste
Visibilidad 10 km o más
Escasas nubes a una altura de 4500 ft
Probabilidad 30% :
Temporalmente
del 14 a las 16 UTC al 14 a las 18 UTC
Nubes dispersas a una altura de 1500 ft
Probabilidad 30% :
Temporalmente
del 14 a las 18 UTC al 14 a las 21 UTC
Nubes dispersas a una altura de 1200 ft

TAF: EGQL 141257Z 1412/1421 22006KT 9999 FEW045 PROB30 TEMPO 1416/1418 SCT015 PROB30 TEMPO 1418/1421 SCT012

Observaciones y pronósticos meteorológicos de más de 4000 aeropuertos (mensajes METAR y TAF).

Los puntos amarillos y rojos representan las estaciones disponibles.

Ponga el ratón en el punto deseado para ver el nombre de la estación.

Haga clic para ver las observaciones y los pronósticos meteorológicos.

Para cambiar el mapa : haga clic en los botones verdes con una cruz de color negro para hacer un zoom, en el botón verde con un guión para alejar o en las flechas verdes para mapas adyacentes.


METAR-TAF: